sensor_id;sensor_type;location;lat;lon;timestamp;P1;durP1;ratioP1;P2;durP2;ratioP2
37903;SDS011;23738;50.422;18.758;2023-09-12T00:03:26;14.20;;;12.90;;
37903;SDS011;23738;50.422;18.758;2023-09-12T00:06:55;16.60;;;13.90;;
37903;SDS011;23738;50.422;18.758;2023-09-12T00:10:24;15.70;;;14.20;;
37903;SDS011;23738;50.422;18.758;2023-09-12T00:13:53;15.80;;;14.30;;
37903;SDS011;23738;50.422;18.758;2023-09-12T00:17:23;13.10;;;11.70;;
37903;SDS011;23738;50.422;18.758;2023-09-12T00:20:52;12.80;;;11.70;;
37903;SDS011;23738;50.422;18.758;2023-09-12T00:24:22;14.30;;;12.70;;
37903;SDS011;23738;50.422;18.758;2023-09-12T00:27:51;14.50;;;13.00;;
37903;SDS011;23738;50.422;18.758;2023-09-12T00:31:20;16.10;;;14.50;;
37903;SDS011;23738;50.422;18.758;2023-09-12T00:34:50;12.70;;;11.70;;
37903;SDS011;23738;50.422;18.758;2023-09-12T00:38:19;12.30;;;11.10;;
37903;SDS011;23738;50.422;18.758;2023-09-12T00:41:48;13.70;;;12.50;;
37903;SDS011;23738;50.422;18.758;2023-09-12T00:45:17;14.60;;;13.20;;
37903;SDS011;23738;50.422;18.758;2023-09-12T00:48:44;16.00;;;14.60;;
37903;SDS011;23738;50.422;18.758;2023-09-12T00:52:05;12.40;;;11.30;;
37903;SDS011;23738;50.422;18.758;2023-09-12T00:55:34;12.20;;;11.00;;
37903;SDS011;23738;50.422;18.758;2023-09-12T00:59:01;13.30;;;12.00;;
37903;SDS011;23738;50.422;18.758;2023-09-12T01:02:28;14.20;;;13.10;;
37903;SDS011;23738;50.422;18.758;2023-09-12T01:04:59;13.50;;;12.50;;
37903;SDS011;23738;50.422;18.758;2023-09-12T01:07:31;14.00;;;12.80;;
37903;SDS011;23738;50.422;18.758;2023-09-12T01:11:00;11.90;;;10.80;;
37903;SDS011;23738;50.422;18.758;2023-09-12T01:17:46;13.10;;;11.80;;
37903;SDS011;23738;50.422;18.758;2023-09-12T01:25:11;13.60;;;12.50;;
37903;SDS011;23738;50.422;18.758;2023-09-12T01:28:51;12.10;;;10.50;;
37903;SDS011;23738;50.422;18.758;2023-09-12T01:32:15;12.80;;;11.70;;
37903;SDS011;23738;50.422;18.758;2023-09-12T01:35:47;13.90;;;12.80;;
37903;SDS011;23738;50.422;18.758;2023-09-12T01:39:15;14.70;;;13.50;;
37903;SDS011;23738;50.422;18.758;2023-09-12T01:42:42;14.40;;;13.10;;
37903;SDS011;23738;50.422;18.758;2023-09-12T01:46:26;11.30;;;10.20;;
37903;SDS011;23738;50.422;18.758;2023-09-12T01:50:11;11.00;;;10.10;;
37903;SDS011;23738;50.422;18.758;2023-09-12T01:53:47;13.20;;;12.00;;
37903;SDS011;23738;50.422;18.758;2023-09-12T01:57:15;13.70;;;12.50;;
37903;SDS011;23738;50.422;18.758;2023-09-12T02:00:44;13.70;;;12.30;;
37903;SDS011;23738;50.422;18.758;2023-09-12T02:04:13;12.00;;;10.90;;
37903;SDS011;23738;50.422;18.758;2023-09-12T02:07:42;11.40;;;10.40;;
37903;SDS011;23738;50.422;18.758;2023-09-12T02:11:12;13.60;;;12.40;;
37903;SDS011;23738;50.422;18.758;2023-09-12T02:14:41;16.90;;;12.80;;
37903;SDS011;23738;50.422;18.758;2023-09-12T02:18:11;13.90;;;12.70;;
37903;SDS011;23738;50.422;18.758;2023-09-12T02:21:40;11.10;;;10.10;;
37903;SDS011;23738;50.422;18.758;2023-09-12T02:24:50;11.30;;;10.30;;
37903;SDS011;23738;50.422;18.758;2023-09-12T02:28:19;13.10;;;11.80;;
37903;SDS011;23738;50.422;18.758;2023-09-12T02:31:48;13.60;;;12.30;;
37903;SDS011;23738;50.422;18.758;2023-09-12T02:35:28;13.10;;;11.50;;
37903;SDS011;23738;50.422;18.758;2023-09-12T02:38:57;11.40;;;10.30;;
37903;SDS011;23738;50.422;18.758;2023-09-12T02:41:48;11.40;;;10.30;;
37903;SDS011;23738;50.422;18.758;2023-09-12T02:44:17;11.70;;;10.50;;
37903;SDS011;23738;50.422;18.758;2023-09-12T02:46:47;12.90;;;11.70;;
37903;SDS011;23738;50.422;18.758;2023-09-12T02:49:18;13.30;;;12.10;;
37903;SDS011;23738;50.422;18.758;2023-09-12T02:52:27;12.80;;;11.70;;
37903;SDS011;23738;50.422;18.758;2023-09-12T02:56:03;11.10;;;10.10;;
37903;SDS011;23738;50.422;18.758;2023-09-12T02:59:32;11.80;;;10.60;;
37903;SDS011;23738;50.422;18.758;2023-09-12T03:03:01;13.80;;;12.50;;
37903;SDS011;23738;50.422;18.758;2023-09-12T03:05:57;14.30;;;12.80;;
37903;SDS011;23738;50.422;18.758;2023-09-12T03:08:48;15.10;;;13.70;;
37903;SDS011;23738;50.422;18.758;2023-09-12T03:12:17;15.80;;;14.20;;
37903;SDS011;23738;50.422;18.758;2023-09-12T03:15:46;13.40;;;11.90;;
37903;SDS011;23738;50.422;18.758;2023-09-12T03:19:18;13.30;;;11.80;;
37903;SDS011;23738;50.422;18.758;2023-09-12T03:22:45;17.00;;;15.00;;
37903;SDS011;23738;50.422;18.758;2023-09-12T03:26:14;19.00;;;17.00;;
37903;SDS011;23738;50.422;18.758;2023-09-12T03:29:24;21.80;;;17.50;;
37903;SDS011;23738;50.422;18.758;2023-09-12T03:33:06;16.70;;;14.70;;
37903;SDS011;23738;50.422;18.758;2023-09-12T03:36:43;14.80;;;13.30;;
37903;SDS011;23738;50.422;18.758;2023-09-12T03:40:13;15.90;;;14.30;;
37903;SDS011;23738;50.422;18.758;2023-09-12T03:43:42;20.70;;;15.50;;
37903;SDS011;23738;50.422;18.758;2023-09-12T03:47:23;16.10;;;14.70;;
37903;SDS011;23738;50.422;18.758;2023-09-12T03:50:41;23.70;;;15.30;;
37903;SDS011;23738;50.422;18.758;2023-09-12T03:53:32;16.70;;;14.70;;
37903;SDS011;23738;50.422;18.758;2023-09-12T03:56:21;19.10;;;17.10;;
37903;SDS011;23738;50.422;18.758;2023-09-12T03:59:50;19.10;;;17.10;;
37903;SDS011;23738;50.422;18.758;2023-09-12T04:02:20;21.10;;;18.90;;
37903;SDS011;23738;50.422;18.758;2023-09-12T04:05:49;22.90;;;20.50;;
37903;SDS011;23738;50.422;18.758;2023-09-12T04:09:18;19.40;;;17.50;;
37903;SDS011;23738;50.422;18.758;2023-09-12T04:12:47;20.20;;;18.00;;
37903;SDS011;23738;50.422;18.758;2023-09-12T04:16:14;28.00;;;22.50;;
37903;SDS011;23738;50.422;18.758;2023-09-12T04:19:44;27.50;;;22.90;;
37903;SDS011;23738;50.422;18.758;2023-09-12T04:23:14;31.40;;;24.70;;
37903;SDS011;23738;50.422;18.758;2023-09-12T04:26:02;26.40;;;21.70;;
37903;SDS011;23738;50.422;18.758;2023-09-12T04:29:32;26.70;;;23.00;;
37903;SDS011;23738;50.422;18.758;2023-09-12T04:33:02;33.80;;;25.10;;
37903;SDS011;23738;50.422;18.758;2023-09-12T04:36:31;36.40;;;27.40;;
37903;SDS011;23738;50.422;18.758;2023-09-12T04:40:00;32.30;;;27.10;;
37903;SDS011;23738;50.422;18.758;2023-09-12T04:43:30;28.90;;;23.00;;
37903;SDS011;23738;50.422;18.758;2023-09-12T04:46:59;31.50;;;24.90;;
37903;SDS011;23738;50.422;18.758;2023-09-12T04:50:28;37.70;;;29.30;;
37903;SDS011;23738;50.422;18.758;2023-09-12T04:53:57;40.40;;;27.90;;
37903;SDS011;23738;50.422;18.758;2023-09-12T04:57:26;35.60;;;30.60;;
37903;SDS011;23738;50.422;18.758;2023-09-12T05:00:56;29.40;;;24.40;;
37903;SDS011;23738;50.422;18.758;2023-09-12T05:04:25;32.80;;;27.10;;
37903;SDS011;23738;50.422;18.758;2023-09-12T05:08:05;39.50;;;31.00;;
37903;SDS011;23738;50.422;18.758;2023-09-12T05:11:15;40.40;;;31.30;;
37903;SDS011;23738;50.422;18.758;2023-09-12T05:14:24;34.00;;;27.80;;
37903;SDS011;23738;50.422;18.758;2023-09-12T05:17:51;26.90;;;23.90;;
37903;SDS011;23738;50.422;18.758;2023-09-12T05:21:20;30.40;;;24.20;;
37903;SDS011;23738;50.422;18.758;2023-09-12T05:24:30;46.90;;;25.50;;
37903;SDS011;23738;50.422;18.758;2023-09-12T05:27:39;40.80;;;24.60;;
37903;SDS011;23738;50.422;18.758;2023-09-12T05:31:06;37.20;;;23.70;;
37903;SDS011;23738;50.422;18.758;2023-09-12T05:34:33;42.50;;;24.60;;
37903;SDS011;23738;50.422;18.758;2023-09-12T05:38:00;32.20;;;24.10;;
37903;SDS011;23738;50.422;18.758;2023-09-12T05:40:57;41.30;;;27.50;;
37903;SDS011;23738;50.422;18.758;2023-09-12T05:43:46;35.40;;;28.10;;
37903;SDS011;23738;50.422;18.758;2023-09-12T05:47:13;34.00;;;24.50;;
37903;SDS011;23738;50.422;18.758;2023-09-12T05:50:40;37.50;;;24.20;;
37903;SDS011;23738;50.422;18.758;2023-09-12T05:53:49;43.90;;;28.50;;
37903;SDS011;23738;50.422;18.758;2023-09-12T05:57:19;48.00;;;28.60;;
37903;SDS011;23738;50.422;18.758;2023-09-12T06:00:48;35.20;;;26.20;;
37903;SDS011;23738;50.422;18.758;2023-09-12T06:03:23;37.10;;;25.80;;
37903;SDS011;23738;50.422;18.758;2023-09-12T06:05:52;46.60;;;26.70;;
37903;SDS011;23738;50.422;18.758;2023-09-12T06:08:22;38.30;;;28.60;;
37903;SDS011;23738;50.422;18.758;2023-09-12T06:10:51;39.70;;;28.00;;
37903;SDS011;23738;50.422;18.758;2023-09-12T06:13:21;42.10;;;26.80;;
37903;SDS011;23738;50.422;18.758;2023-09-12T06:15:51;35.40;;;23.50;;
37903;SDS011;23738;50.422;18.758;2023-09-12T06:18:20;30.90;;;22.60;;
37903;SDS011;23738;50.422;18.758;2023-09-12T06:20:50;24.70;;;21.80;;
37903;SDS011;23738;50.422;18.758;2023-09-12T06:23:20;24.90;;;22.00;;
37903;SDS011;23738;50.422;18.758;2023-09-12T06:25:50;30.50;;;22.00;;
37903;SDS011;23738;50.422;18.758;2023-09-12T06:28:25;34.70;;;21.30;;
37903;SDS011;23738;50.422;18.758;2023-09-12T06:30:55;26.90;;;19.80;;
37903;SDS011;23738;50.422;18.758;2023-09-12T06:33:24;32.40;;;20.20;;
37903;SDS011;23738;50.422;18.758;2023-09-12T06:35:55;28.70;;;21.60;;
37903;SDS011;23738;50.422;18.758;2023-09-12T06:38:24;25.40;;;20.50;;
37903;SDS011;23738;50.422;18.758;2023-09-12T06:40:54;30.30;;;21.80;;
37903;SDS011;23738;50.422;18.758;2023-09-12T06:43:23;25.50;;;20.40;;
37903;SDS011;23738;50.422;18.758;2023-09-12T06:45:52;30.10;;;19.60;;
37903;SDS011;23738;50.422;18.758;2023-09-12T06:48:22;23.20;;;20.00;;
37903;SDS011;23738;50.422;18.758;2023-09-12T06:50:52;22.60;;;19.50;;
37903;SDS011;23738;50.422;18.758;2023-09-12T06:53:21;22.40;;;18.90;;
37903;SDS011;23738;50.422;18.758;2023-09-12T06:55:50;30.70;;;19.40;;
37903;SDS011;23738;50.422;18.758;2023-09-12T06:58:20;27.50;;;18.20;;
37903;SDS011;23738;50.422;18.758;2023-09-12T07:00:49;24.40;;;16.60;;
37903;SDS011;23738;50.422;18.758;2023-09-12T07:03:19;21.50;;;16.30;;
37903;SDS011;23738;50.422;18.758;2023-09-12T07:05:48;21.70;;;17.30;;
37903;SDS011;23738;50.422;18.758;2023-09-12T07:08:18;19.60;;;17.60;;
37903;SDS011;23738;50.422;18.758;2023-09-12T07:10:47;28.80;;;17.00;;
37903;SDS011;23738;50.422;18.758;2023-09-12T07:13:17;23.30;;;16.30;;
37903;SDS011;23738;50.422;18.758;2023-09-12T07:15:46;20.50;;;16.60;;
37903;SDS011;23738;50.422;18.758;2023-09-12T07:18:17;18.90;;;17.00;;
37903;SDS011;23738;50.422;18.758;2023-09-12T07:20:47;18.30;;;15.60;;
37903;SDS011;23738;50.422;18.758;2023-09-12T07:23:27;16.80;;;14.80;;
37903;SDS011;23738;50.422;18.758;2023-09-12T07:25:56;17.90;;;14.80;;
37903;SDS011;23738;50.422;18.758;2023-09-12T07:28:27;15.40;;;13.80;;
37903;SDS011;23738;50.422;18.758;2023-09-12T07:30:58;18.20;;;13.80;;
37903;SDS011;23738;50.422;18.758;2023-09-12T07:33:28;14.40;;;13.00;;
37903;SDS011;23738;50.422;18.758;2023-09-12T07:35:57;18.70;;;12.20;;
37903;SDS011;23738;50.422;18.758;2023-09-12T07:38:29;14.00;;;11.80;;
37903;SDS011;23738;50.422;18.758;2023-09-12T07:40:58;11.80;;;10.50;;
37903;SDS011;23738;50.422;18.758;2023-09-12T07:43:29;13.00;;;11.60;;
37903;SDS011;23738;50.422;18.758;2023-09-12T07:45:59;12.70;;;10.90;;
37903;SDS011;23738;50.422;18.758;2023-09-12T07:48:28;14.70;;;11.30;;
37903;SDS011;23738;50.422;18.758;2023-09-12T07:50:58;15.50;;;12.50;;
37903;SDS011;23738;50.422;18.758;2023-09-12T07:53:29;12.90;;;11.70;;
37903;SDS011;23738;50.422;18.758;2023-09-12T07:56:00;14.60;;;10.90;;
37903;SDS011;23738;50.422;18.758;2023-09-12T07:58:29;11.10;;;10.00;;
37903;SDS011;23738;50.422;18.758;2023-09-12T08:00:59;11.90;;;9.80;;
37903;SDS011;23738;50.422;18.758;2023-09-12T08:03:31;12.90;;;8.60;;
37903;SDS011;23738;50.422;18.758;2023-09-12T08:06:01;9.80;;;8.70;;
37903;SDS011;23738;50.422;18.758;2023-09-12T08:08:31;12.40;;;9.80;;
37903;SDS011;23738;50.422;18.758;2023-09-12T08:11:01;10.90;;;9.60;;
37903;SDS011;23738;50.422;18.758;2023-09-12T08:13:30;16.70;;;10.20;;
37903;SDS011;23738;50.422;18.758;2023-09-12T08:16:00;13.30;;;9.60;;
37903;SDS011;23738;50.422;18.758;2023-09-12T08:18:30;11.70;;;9.30;;
37903;SDS011;23738;50.422;18.758;2023-09-12T08:20:59;15.10;;;9.80;;
37903;SDS011;23738;50.422;18.758;2023-09-12T08:23:29;17.10;;;10.70;;
37903;SDS011;23738;50.422;18.758;2023-09-12T08:25:58;11.30;;;10.00;;
37903;SDS011;23738;50.422;18.758;2023-09-12T08:28:28;13.40;;;9.60;;
37903;SDS011;23738;50.422;18.758;2023-09-12T08:30:57;19.30;;;10.40;;
37903;SDS011;23738;50.422;18.758;2023-09-12T08:33:26;11.90;;;9.10;;
37903;SDS011;23738;50.422;18.758;2023-09-12T08:35:56;11.40;;;8.20;;
37903;SDS011;23738;50.422;18.758;2023-09-12T08:38:26;9.40;;;7.40;;
37903;SDS011;23738;50.422;18.758;2023-09-12T08:40:55;8.20;;;7.00;;
37903;SDS011;23738;50.422;18.758;2023-09-12T08:43:25;10.50;;;7.30;;
37903;SDS011;23738;50.422;18.758;2023-09-12T08:45:54;7.00;;;6.30;;
37903;SDS011;23738;50.422;18.758;2023-09-12T08:48:24;12.40;;;7.00;;
37903;SDS011;23738;50.422;18.758;2023-09-12T08:50:56;11.00;;;6.80;;
37903;SDS011;23738;50.422;18.758;2023-09-12T08:53:26;12.80;;;7.20;;
37903;SDS011;23738;50.422;18.758;2023-09-12T08:55:56;12.00;;;6.80;;
37903;SDS011;23738;50.422;18.758;2023-09-12T08:58:30;7.90;;;6.00;;
37903;SDS011;23738;50.422;18.758;2023-09-12T09:01:00;9.40;;;5.90;;
37903;SDS011;23738;50.422;18.758;2023-09-12T09:03:31;8.60;;;5.20;;
37903;SDS011;23738;50.422;18.758;2023-09-12T09:06:00;7.60;;;5.20;;
37903;SDS011;23738;50.422;18.758;2023-09-12T09:08:31;8.70;;;5.50;;
37903;SDS011;23738;50.422;18.758;2023-09-12T09:11:02;8.60;;;5.20;;
37903;SDS011;23738;50.422;18.758;2023-09-12T09:13:33;8.80;;;4.80;;
37903;SDS011;23738;50.422;18.758;2023-09-12T09:16:12;6.10;;;4.80;;
37903;SDS011;23738;50.422;18.758;2023-09-12T09:18:55;8.50;;;4.70;;
37903;SDS011;23738;50.422;18.758;2023-09-12T09:21:26;8.80;;;5.30;;
37903;SDS011;23738;50.422;18.758;2023-09-12T09:23:58;7.30;;;5.50;;
37903;SDS011;23738;50.422;18.758;2023-09-12T09:26:41;9.30;;;5.00;;
37903;SDS011;23738;50.422;18.758;2023-09-12T09:29:13;9.90;;;5.40;;
37903;SDS011;23738;50.422;18.758;2023-09-12T09:31:43;13.00;;;5.70;;
37903;SDS011;23738;50.422;18.758;2023-09-12T09:34:15;9.50;;;5.80;;
37903;SDS011;23738;50.422;18.758;2023-09-12T09:36:46;15.50;;;6.10;;
37903;SDS011;23738;50.422;18.758;2023-09-12T09:39:17;10.30;;;6.00;;
37903;SDS011;23738;50.422;18.758;2023-09-12T09:41:48;20.00;;;6.30;;
37903;SDS011;23738;50.422;18.758;2023-09-12T09:44:18;11.70;;;6.70;;
37903;SDS011;23738;50.422;18.758;2023-09-12T09:46:50;10.30;;;5.60;;
37903;SDS011;23738;50.422;18.758;2023-09-12T09:49:22;9.30;;;6.80;;
37903;SDS011;23738;50.422;18.758;2023-09-12T09:51:51;8.60;;;7.00;;
37903;SDS011;23738;50.422;18.758;2023-09-12T09:54:25;12.40;;;6.70;;
37903;SDS011;23738;50.422;18.758;2023-09-12T09:56:55;8.90;;;7.10;;
37903;SDS011;23738;50.422;18.758;2023-09-12T09:59:26;8.20;;;7.40;;
37903;SDS011;23738;50.422;18.758;2023-09-12T10:01:56;13.40;;;6.90;;
37903;SDS011;23738;50.422;18.758;2023-09-12T10:04:27;9.40;;;7.10;;
37903;SDS011;23738;50.422;18.758;2023-09-12T10:06:59;7.30;;;6.60;;
37903;SDS011;23738;50.422;18.758;2023-09-12T10:09:29;15.60;;;7.40;;
37903;SDS011;23738;50.422;18.758;2023-09-12T10:12:00;11.10;;;7.50;;
37903;SDS011;23738;50.422;18.758;2023-09-12T10:14:30;13.60;;;7.40;;
37903;SDS011;23738;50.422;18.758;2023-09-12T10:17:01;14.90;;;7.00;;
37903;SDS011;23738;50.422;18.758;2023-09-12T10:19:32;13.90;;;7.30;;
37903;SDS011;23738;50.422;18.758;2023-09-12T10:22:09;10.80;;;6.70;;
37903;SDS011;23738;50.422;18.758;2023-09-12T10:24:42;10.00;;;7.10;;
37903;SDS011;23738;50.422;18.758;2023-09-12T10:27:13;10.00;;;6.80;;
37903;SDS011;23738;50.422;18.758;2023-09-12T10:29:44;11.00;;;7.40;;
37903;SDS011;23738;50.422;18.758;2023-09-12T10:32:16;7.50;;;6.80;;
37903;SDS011;23738;50.422;18.758;2023-09-12T10:34:46;8.20;;;7.00;;
37903;SDS011;23738;50.422;18.758;2023-09-12T10:37:19;8.80;;;6.70;;
37903;SDS011;23738;50.422;18.758;2023-09-12T10:39:53;6.90;;;6.20;;
37903;SDS011;23738;50.422;18.758;2023-09-12T10:42:23;7.80;;;6.70;;
37903;SDS011;23738;50.422;18.758;2023-09-12T10:44:55;8.30;;;6.60;;
37903;SDS011;23738;50.422;18.758;2023-09-12T10:47:25;13.90;;;6.50;;
37903;SDS011;23738;50.422;18.758;2023-09-12T10:49:55;8.90;;;6.40;;
37903;SDS011;23738;50.422;18.758;2023-09-12T10:52:26;7.90;;;6.70;;
37903;SDS011;23738;50.422;18.758;2023-09-12T10:54:56;10.20;;;6.00;;
37903;SDS011;23738;50.422;18.758;2023-09-12T10:57:26;7.70;;;6.00;;
37903;SDS011;23738;50.422;18.758;2023-09-12T11:00:12;6.20;;;5.60;;
37903;SDS011;23738;50.422;18.758;2023-09-12T11:02:42;9.90;;;5.50;;
37903;SDS011;23738;50.422;18.758;2023-09-12T11:08:20;7.40;;;6.00;;
37903;SDS011;23738;50.422;18.758;2023-09-12T11:13:47;6.70;;;6.00;;
37903;SDS011;23738;50.422;18.758;2023-09-12T11:16:32;6.30;;;5.70;;
37903;SDS011;23738;50.422;18.758;2023-09-12T11:19:15;7.90;;;6.40;;
37903;SDS011;23738;50.422;18.758;2023-09-12T11:21:46;6.90;;;6.30;;
37903;SDS011;23738;50.422;18.758;2023-09-12T11:24:17;8.40;;;6.20;;
37903;SDS011;23738;50.422;18.758;2023-09-12T11:26:54;6.20;;;5.60;;
37903;SDS011;23738;50.422;18.758;2023-09-12T11:29:29;5.40;;;5.00;;
37903;SDS011;23738;50.422;18.758;2023-09-12T11:32:03;5.10;;;4.60;;
37903;SDS011;23738;50.422;18.758;2023-09-12T11:34:37;4.80;;;4.20;;
37903;SDS011;23738;50.422;18.758;2023-09-12T11:37:09;5.50;;;5.10;;
37903;SDS011;23738;50.422;18.758;2023-09-12T11:39:49;6.80;;;4.90;;
37903;SDS011;23738;50.422;18.758;2023-09-12T11:42:28;5.40;;;5.00;;
37903;SDS011;23738;50.422;18.758;2023-09-12T11:44:58;6.10;;;5.10;;
37903;SDS011;23738;50.422;18.758;2023-09-12T11:47:28;5.60;;;5.10;;
37903;SDS011;23738;50.422;18.758;2023-09-12T11:49:58;5.60;;;5.00;;
37903;SDS011;23738;50.422;18.758;2023-09-12T11:52:29;5.60;;;5.10;;
37903;SDS011;23738;50.422;18.758;2023-09-12T11:54:58;5.30;;;4.90;;
37903;SDS011;23738;50.422;18.758;2023-09-12T11:57:28;9.40;;;5.80;;
37903;SDS011;23738;50.422;18.758;2023-09-12T11:59:58;5.80;;;5.20;;
37903;SDS011;23738;50.422;18.758;2023-09-12T12:02:35;7.70;;;5.10;;
37903;SDS011;23738;50.422;18.758;2023-09-12T12:05:05;5.30;;;4.60;;
37903;SDS011;23738;50.422;18.758;2023-09-12T12:07:35;6.00;;;4.80;;
37903;SDS011;23738;50.422;18.758;2023-09-12T12:10:05;5.60;;;5.10;;
37903;SDS011;23738;50.422;18.758;2023-09-12T12:12:35;6.30;;;5.20;;
37903;SDS011;23738;50.422;18.758;2023-09-12T12:15:04;5.30;;;4.60;;
37903;SDS011;23738;50.422;18.758;2023-09-12T12:17:38;5.00;;;4.60;;
37903;SDS011;23738;50.422;18.758;2023-09-12T12:20:10;6.70;;;4.90;;
37903;SDS011;23738;50.422;18.758;2023-09-12T12:22:41;5.30;;;4.70;;
37903;SDS011;23738;50.422;18.758;2023-09-12T12:25:11;6.70;;;4.80;;
37903;SDS011;23738;50.422;18.758;2023-09-12T12:27:41;6.90;;;5.10;;
37903;SDS011;23738;50.422;18.758;2023-09-12T12:30:12;4.90;;;4.50;;
37903;SDS011;23738;50.422;18.758;2023-09-12T12:32:42;7.00;;;5.00;;
37903;SDS011;23738;50.422;18.758;2023-09-12T12:35:18;6.40;;;4.50;;
37903;SDS011;23738;50.422;18.758;2023-09-12T12:37:49;4.90;;;4.50;;
37903;SDS011;23738;50.422;18.758;2023-09-12T12:40:22;5.00;;;4.50;;
37903;SDS011;23738;50.422;18.758;2023-09-12T12:42:51;8.10;;;5.00;;
37903;SDS011;23738;50.422;18.758;2023-09-12T12:45:21;5.30;;;4.80;;
37903;SDS011;23738;50.422;18.758;2023-09-12T12:47:57;5.30;;;4.80;;
37903;SDS011;23738;50.422;18.758;2023-09-12T12:50:27;5.10;;;4.70;;
37903;SDS011;23738;50.422;18.758;2023-09-12T12:52:56;5.00;;;4.50;;
37903;SDS011;23738;50.422;18.758;2023-09-12T12:55:26;6.30;;;4.40;;
37903;SDS011;23738;50.422;18.758;2023-09-12T12:57:56;7.90;;;4.50;;
37903;SDS011;23738;50.422;18.758;2023-09-12T13:00:25;5.00;;;4.30;;
37903;SDS011;23738;50.422;18.758;2023-09-12T13:02:55;5.10;;;4.60;;
37903;SDS011;23738;50.422;18.758;2023-09-12T13:05:26;9.20;;;4.70;;
37903;SDS011;23738;50.422;18.758;2023-09-12T13:07:57;6.00;;;4.40;;
37903;SDS011;23738;50.422;18.758;2023-09-12T13:10:26;5.60;;;4.10;;
37903;SDS011;23738;50.422;18.758;2023-09-12T13:12:57;8.60;;;4.70;;
37903;SDS011;23738;50.422;18.758;2023-09-12T13:15:26;5.30;;;4.80;;
37903;SDS011;23738;50.422;18.758;2023-09-12T13:17:56;6.30;;;4.50;;
37903;SDS011;23738;50.422;18.758;2023-09-12T13:20:25;4.70;;;4.30;;
37903;SDS011;23738;50.422;18.758;2023-09-12T13:22:55;5.10;;;4.70;;
37903;SDS011;23738;50.422;18.758;2023-09-12T13:25:24;4.90;;;4.50;;
37903;SDS011;23738;50.422;18.758;2023-09-12T13:27:54;7.10;;;4.70;;
37903;SDS011;23738;50.422;18.758;2023-09-12T13:30:23;4.90;;;4.40;;
37903;SDS011;23738;50.422;18.758;2023-09-12T13:32:52;5.20;;;4.70;;
37903;SDS011;23738;50.422;18.758;2023-09-12T13:35:22;6.90;;;4.60;;
37903;SDS011;23738;50.422;18.758;2023-09-12T13:37:51;5.10;;;4.50;;
37903;SDS011;23738;50.422;18.758;2023-09-12T13:40:20;5.50;;;4.30;;
37903;SDS011;23738;50.422;18.758;2023-09-12T13:42:50;5.40;;;5.00;;
37903;SDS011;23738;50.422;18.758;2023-09-12T13:45:19;6.40;;;4.70;;
37903;SDS011;23738;50.422;18.758;2023-09-12T13:47:48;11.30;;;4.80;;
37903;SDS011;23738;50.422;18.758;2023-09-12T13:50:18;5.80;;;5.00;;
37903;SDS011;23738;50.422;18.758;2023-09-12T13:52:47;8.10;;;4.90;;
37903;SDS011;23738;50.422;18.758;2023-09-12T13:55:17;5.10;;;4.60;;
37903;SDS011;23738;50.422;18.758;2023-09-12T13:57:46;5.00;;;4.60;;
37903;SDS011;23738;50.422;18.758;2023-09-12T14:00:15;5.50;;;4.50;;
37903;SDS011;23738;50.422;18.758;2023-09-12T14:02:45;8.30;;;4.40;;
37903;SDS011;23738;50.422;18.758;2023-09-12T14:05:14;4.70;;;4.30;;
37903;SDS011;23738;50.422;18.758;2023-09-12T14:07:44;5.30;;;4.90;;
37903;SDS011;23738;50.422;18.758;2023-09-12T14:10:14;5.30;;;4.90;;
37903;SDS011;23738;50.422;18.758;2023-09-12T14:12:44;5.70;;;5.20;;
37903;SDS011;23738;50.422;18.758;2023-09-12T14:15:13;6.40;;;4.70;;
37903;SDS011;23738;50.422;18.758;2023-09-12T14:17:43;5.40;;;4.90;;
37903;SDS011;23738;50.422;18.758;2023-09-12T14:20:12;5.50;;;5.10;;
37903;SDS011;23738;50.422;18.758;2023-09-12T14:22:43;5.10;;;4.70;;
37903;SDS011;23738;50.422;18.758;2023-09-12T14:25:13;4.90;;;4.50;;
37903;SDS011;23738;50.422;18.758;2023-09-12T14:27:43;5.60;;;4.70;;
37903;SDS011;23738;50.422;18.758;2023-09-12T14:30:12;5.40;;;4.90;;
37903;SDS011;23738;50.422;18.758;2023-09-12T14:32:42;5.30;;;4.80;;
37903;SDS011;23738;50.422;18.758;2023-09-12T14:35:11;7.90;;;5.30;;
37903;SDS011;23738;50.422;18.758;2023-09-12T14:37:41;5.80;;;4.60;;
37903;SDS011;23738;50.422;18.758;2023-09-12T14:40:12;8.30;;;4.70;;
37903;SDS011;23738;50.422;18.758;2023-09-12T14:42:43;7.40;;;4.70;;
37903;SDS011;23738;50.422;18.758;2023-09-12T14:45:13;6.90;;;4.80;;
37903;SDS011;23738;50.422;18.758;2023-09-12T14:47:43;5.10;;;4.70;;
37903;SDS011;23738;50.422;18.758;2023-09-12T14:50:12;6.70;;;4.80;;
37903;SDS011;23738;50.422;18.758;2023-09-12T14:52:42;5.30;;;4.80;;
37903;SDS011;23738;50.422;18.758;2023-09-12T14:55:11;5.20;;;4.70;;
37903;SDS011;23738;50.422;18.758;2023-09-12T14:57:40;5.10;;;4.70;;
37903;SDS011;23738;50.422;18.758;2023-09-12T15:00:11;10.40;;;5.10;;
37903;SDS011;23738;50.422;18.758;2023-09-12T15:02:41;6.10;;;4.70;;
37903;SDS011;23738;50.422;18.758;2023-09-12T15:05:10;5.70;;;4.90;;
37903;SDS011;23738;50.422;18.758;2023-09-12T15:07:39;7.70;;;5.20;;
37903;SDS011;23738;50.422;18.758;2023-09-12T15:10:09;5.90;;;4.80;;
37903;SDS011;23738;50.422;18.758;2023-09-12T15:12:39;5.50;;;4.90;;
37903;SDS011;23738;50.422;18.758;2023-09-12T15:15:09;9.10;;;4.60;;
37903;SDS011;23738;50.422;18.758;2023-09-12T15:17:39;5.30;;;4.80;;
37903;SDS011;23738;50.422;18.758;2023-09-12T15:20:09;5.60;;;5.20;;
37903;SDS011;23738;50.422;18.758;2023-09-12T15:22:39;5.80;;;5.30;;
37903;SDS011;23738;50.422;18.758;2023-09-12T15:25:10;6.90;;;5.00;;
37903;SDS011;23738;50.422;18.758;2023-09-12T15:27:39;8.10;;;4.90;;
37903;SDS011;23738;50.422;18.758;2023-09-12T15:30:09;8.10;;;5.40;;
37903;SDS011;23738;50.422;18.758;2023-09-12T15:32:40;5.00;;;4.60;;
37903;SDS011;23738;50.422;18.758;2023-09-12T15:35:09;5.90;;;5.40;;
37903;SDS011;23738;50.422;18.758;2023-09-12T15:37:39;8.30;;;5.70;;
37903;SDS011;23738;50.422;18.758;2023-09-12T15:40:10;8.30;;;6.90;;
37903;SDS011;23738;50.422;18.758;2023-09-12T15:42:39;10.10;;;7.40;;
37903;SDS011;23738;50.422;18.758;2023-09-12T15:45:09;7.90;;;6.80;;
37903;SDS011;23738;50.422;18.758;2023-09-12T15:47:39;11.60;;;7.40;;
37903;SDS011;23738;50.422;18.758;2023-09-12T15:50:09;8.20;;;7.40;;
37903;SDS011;23738;50.422;18.758;2023-09-12T15:52:38;6.30;;;5.70;;
37903;SDS011;23738;50.422;18.758;2023-09-12T15:55:09;9.40;;;6.30;;
37903;SDS011;23738;50.422;18.758;2023-09-12T15:57:39;6.20;;;5.70;;
37903;SDS011;23738;50.422;18.758;2023-09-12T16:00:09;6.40;;;5.80;;
37903;SDS011;23738;50.422;18.758;2023-09-12T16:02:40;6.40;;;5.80;;
37903;SDS011;23738;50.422;18.758;2023-09-12T16:05:10;6.60;;;6.00;;
37903;SDS011;23738;50.422;18.758;2023-09-12T16:07:39;7.10;;;6.40;;
37903;SDS011;23738;50.422;18.758;2023-09-12T16:10:09;9.50;;;6.10;;
37903;SDS011;23738;50.422;18.758;2023-09-12T16:12:41;8.00;;;6.70;;
37903;SDS011;23738;50.422;18.758;2023-09-12T16:15:10;10.30;;;7.50;;
37903;SDS011;23738;50.422;18.758;2023-09-12T16:17:41;8.20;;;7.20;;
37903;SDS011;23738;50.422;18.758;2023-09-12T16:20:11;10.60;;;9.60;;
37903;SDS011;23738;50.422;18.758;2023-09-12T16:22:41;13.10;;;11.40;;
37903;SDS011;23738;50.422;18.758;2023-09-12T16:25:10;12.40;;;11.20;;